Time;durP1;ratioP1;P1;durP2;ratioP2;P2;SDS_P1;SDS_P2;PMS_P1;PMS_P2;Temp;Humidity;BMP_temperature;BMP_pressure;BME280_temperature;BME280_humidity;BME280_pressure;Samples;Min_cycle;Max_cycle;Signal;HPM_P1;HPM_P2
2023/12/24 00:00:17;;;;;;;102.85;97.00;;;11.70;99.90;;;;;;5029908;28;20038;-75
2023/12/24 00:02:43;;;;;;;129.35;122.40;;;11.80;99.90;;;;;;5027845;28;20042;-71
2023/12/24 00:05:09;;;;;;;93.63;88.32;;;11.70;99.90;;;;;;5030925;28;20036;-70
2023/12/24 00:07:35;;;;;;;95.97;90.50;;;11.80;99.90;;;;;;5012774;28;20052;-70
2023/12/24 00:10:01;;;;;;;106.25;100.28;;;11.80;99.90;;;;;;5025569;28;20041;-70
2023/12/24 00:12:27;;;;;;;103.03;97.35;;;11.80;99.90;;;;;;5014799;28;20040;-71
2023/12/24 00:14:54;;;;;;;94.85;89.53;;;11.80;99.90;;;;;;5016545;28;20025;-70
2023/12/24 00:17:20;;;;;;;131.15;123.90;;;11.80;99.90;;;;;;5031275;28;20045;-70
2023/12/24 00:19:46;;;;;;;139.95;132.77;;;11.80;99.90;;;;;;5031079;28;20050;-70
2023/12/24 00:22:12;;;;;;;136.40;128.57;;;11.80;99.90;;;;;;5031051;28;20046;-70
2023/12/24 00:24:38;;;;;;;135.10;127.55;;;11.80;99.90;;;;;;5031013;28;20478;-70
2023/12/24 00:27:05;;;;;;;156.18;147.40;;;11.80;99.90;;;;;;5028998;28;20470;-70
2023/12/24 00:29:31;;;;;;;167.88;159.05;;;11.70;99.90;;;;;;5029513;28;20021;-70
2023/12/24 00:31:57;;;;;;;148.98;140.65;;;11.80;99.90;;;;;;5029665;28;20049;-71
2023/12/24 00:34:23;;;;;;;135.27;127.75;;;11.80;99.90;;;;;;5029540;28;20041;-70
2023/12/24 00:36:49;;;;;;;115.95;109.53;;;11.70;99.90;;;;;;5031319;28;20493;-70
2023/12/24 00:39:15;;;;;;;139.30;131.73;;;11.80;99.90;;;;;;5028509;28;20041;-70
2023/12/24 00:41:41;;;;;;;142.18;134.63;;;11.80;99.90;;;;;;5031399;28;20038;-70
2023/12/24 00:44:07;;;;;;;155.95;147.40;;;11.80;99.90;;;;;;5030748;28;20041;-70
2023/12/24 00:46:34;;;;;;;162.38;153.73;;;11.80;99.90;;;;;;5025584;28;20044;-70
2023/12/24 00:49:00;;;;;;;135.10;127.05;;;11.80;99.90;;;;;;5030489;28;20026;-71
2023/12/24 00:51:26;;;;;;;107.10;101.00;;;11.70;99.90;;;;;;5036787;28;20497;-71
2023/12/24 00:53:52;;;;;;;139.50;131.65;;;11.80;99.90;;;;;;5031164;28;20056;-70
2023/12/24 00:56:18;;;;;;;99.65;93.70;;;11.70;99.90;;;;;;5029173;28;20063;-71
2023/12/24 00:58:44;;;;;;;95.97;90.13;;;11.70;99.90;;;;;;5029897;28;20037;-70
2023/12/24 01:01:10;;;;;;;123.13;115.85;;;11.70;99.90;;;;;;5028924;28;20037;-70
2023/12/24 01:03:36;;;;;;;143.15;135.13;;;11.70;99.90;;;;;;5027805;28;20033;-70
2023/12/24 01:06:03;;;;;;;130.57;123.10;;;11.70;99.90;;;;;;5023088;28;20042;-75
2023/12/24 01:08:29;;;;;;;105.65;99.47;;;11.80;99.90;;;;;;5030665;28;20037;-74
2023/12/24 01:10:55;;;;;;;106.97;100.65;;;11.80;99.90;;;;;;5030317;28;20061;-74
2023/12/24 01:13:21;;;;;;;101.38;95.22;;;11.80;99.90;;;;;;5031539;28;20029;-74
2023/12/24 01:15:47;;;;;;;186.77;176.40;;;11.80;99.90;;;;;;5031270;28;20042;-75
2023/12/24 01:18:14;;;;;;;388.45;366.20;;;11.80;99.90;;;;;;5033509;28;20454;-74
2023/12/24 01:20:41;;;;;;;439.77;413.80;;;11.80;99.90;;;;;;5020586;28;20490;-74
2023/12/24 01:23:07;;;;;;;318.88;300.42;;;11.80;99.90;;;;;;5034948;28;20041;-75
2023/12/24 01:25:34;;;;;;;173.98;163.52;;;11.80;99.90;;;;;;5032697;28;20034;-74
2023/12/24 01:28:00;;;;;;;231.80;219.05;;;11.80;99.90;;;;;;5033312;28;20496;-74
2023/12/24 01:30:26;;;;;;;286.88;270.35;;;11.70;99.90;;;;;;5032518;28;20038;-74
2023/12/24 01:32:52;;;;;;;316.85;298.55;;;11.80;99.90;;;;;;5034857;28;20478;-74
2023/12/24 01:35:18;;;;;;;382.20;360.33;;;11.80;99.90;;;;;;5030756;28;20048;-74
2023/12/24 01:37:44;;;;;;;415.77;391.77;;;11.70;99.90;;;;;;5021263;28;20375;-74
2023/12/24 01:40:11;;;;;;;363.33;342.50;;;11.70;99.90;;;;;;5034394;28;20022;-75
2023/12/24 01:42:37;;;;;;;384.33;361.73;;;11.80;99.90;;;;;;5033148;28;20040;-75
2023/12/24 01:45:03;;;;;;;412.63;388.13;;;11.70;99.90;;;;;;5011557;28;20049;-74
2023/12/24 01:47:30;;;;;;;329.45;310.73;;;11.70;99.90;;;;;;5031766;28;20041;-74
2023/12/24 01:49:56;;;;;;;164.90;155.40;;;11.80;99.90;;;;;;5015645;28;20418;-74
2023/12/24 01:52:22;;;;;;;247.60;233.82;;;11.80;99.90;;;;;;5029437;28;20037;-74
2023/12/24 01:54:48;;;;;;;324.95;306.38;;;11.80;99.90;;;;;;5031851;28;20025;-75
2023/12/24 01:57:14;;;;;;;318.85;300.67;;;11.70;99.90;;;;;;5031561;28;20029;-74
2023/12/24 01:59:41;;;;;;;183.70;173.18;;;11.70;99.90;;;;;;5034111;28;20569;-74
2023/12/24 02:02:08;;;;;;;248.93;235.52;;;11.70;99.90;;;;;;5031959;28;20034;-74
2023/12/24 02:04:34;;;;;;;110.15;102.93;;;11.70;99.90;;;;;;5033075;28;20474;-74
2023/12/24 02:07:02;;;;;;;100.13;94.47;;;11.70;99.90;;;;;;5031487;28;20033;-75
2023/12/24 02:09:28;;;;;;;118.95;111.43;;;11.70;99.90;;;;;;5032077;28;20022;-74
2023/12/24 02:11:54;;;;;;;115.47;108.28;;;11.70;99.90;;;;;;5031601;28;20053;-74
2023/12/24 02:14:20;;;;;;;108.63;102.05;;;11.70;99.90;;;;;;5034000;28;20040;-74
2023/12/24 02:16:46;;;;;;;119.80;112.18;;;11.70;99.90;;;;;;5014671;28;20029;-74
2023/12/24 02:19:17;;;;;;;139.55;131.38;;;11.70;99.90;;;;;;5032720;28;20033;-75
2023/12/24 02:21:43;;;;;;;180.93;170.32;;;11.70;99.90;;;;;;5031922;28;20045;-74
2023/12/24 02:24:10;;;;;;;188.93;177.02;;;11.70;99.90;;;;;;5025341;28;20042;-70
2023/12/24 02:26:46;;;;;;;142.15;133.82;;;11.80;99.90;;;;;;5022161;28;20038;-70
2023/12/24 02:29:20;;;;;;;161.48;151.77;;;11.80;99.90;;;;;;5031886;28;20041;-70
2023/12/24 02:31:46;;;;;;;217.95;205.88;;;11.80;99.90;;;;;;5032529;28;20648;-70
2023/12/24 02:34:14;;;;;;;285.60;269.02;;;11.80;99.90;;;;;;5032370;28;20030;-70
2023/12/24 02:36:40;;;;;;;300.83;283.15;;;11.80;99.90;;;;;;5024298;28;20030;-70
2023/12/24 02:39:06;;;;;;;174.77;164.77;;;11.80;99.90;;;;;;5031449;28;20401;-70
2023/12/24 02:41:32;;;;;;;249.48;234.75;;;11.80;99.90;;;;;;5032051;28;20037;-70
2023/12/24 02:43:58;;;;;;;222.95;209.95;;;11.80;99.90;;;;;;5028423;28;20034;-70
2023/12/24 02:46:24;;;;;;;274.88;259.20;;;11.80;99.90;;;;;;5046716;28;20029;-70
2023/12/24 02:48:50;;;;;;;257.35;242.40;;;11.80;99.90;;;;;;5030669;28;20037;-69
2023/12/24 02:51:17;;;;;;;249.88;235.82;;;11.80;99.90;;;;;;5032518;28;20052;-69
2023/12/24 02:53:43;;;;;;;236.23;222.43;;;11.80;99.90;;;;;;5031011;28;20045;-69
2023/12/24 02:56:09;;;;;;;190.35;179.10;;;11.80;99.90;;;;;;5031613;28;20040;-70
2023/12/24 02:58:35;;;;;;;252.57;238.07;;;11.80;99.90;;;;;;5032687;28;20040;-70
2023/12/24 03:01:01;;;;;;;194.90;183.65;;;11.70;99.90;;;;;;5025465;28;20037;-70
2023/12/24 03:03:27;;;;;;;269.05;253.98;;;11.70;99.90;;;;;;5027345;28;20034;-70
2023/12/24 03:05:53;;;;;;;305.92;288.58;;;11.80;99.90;;;;;;5032085;28;20041;-69
2023/12/24 03:08:21;;;;;;;303.95;286.80;;;11.80;99.90;;;;;;5031218;28;20034;-70
2023/12/24 03:10:47;;;;;;;205.73;193.60;;;11.80;99.90;;;;;;5031628;28;20417;-70
2023/12/24 03:13:13;;;;;;;243.65;230.48;;;11.80;99.90;;;;;;5031612;28;20033;-70
2023/12/24 03:15:39;;;;;;;206.30;194.75;;;11.80;99.90;;;;;;5031693;28;20033;-70
2023/12/24 03:18:05;;;;;;;218.02;205.52;;;11.80;99.90;;;;;;5029954;28;20037;-70
2023/12/24 03:20:31;;;;;;;262.40;247.52;;;11.80;99.90;;;;;;5030376;28;20041;-69
2023/12/24 03:22:57;;;;;;;267.98;252.57;;;11.80;99.90;;;;;;5032063;28;20386;-70
2023/12/24 03:25:23;;;;;;;236.90;223.32;;;11.70;99.90;;;;;;5032465;28;20036;-70
2023/12/24 03:27:49;;;;;;;248.82;234.60;;;11.70;99.90;;;;;;5028882;28;20048;-74
2023/12/24 03:30:17;;;;;;;226.38;213.07;;;11.70;99.90;;;;;;5029876;28;20049;-74
2023/12/24 03:32:43;;;;;;;220.65;207.30;;;11.80;99.90;;;;;;5031634;28;20036;-74
2023/12/24 03:35:09;;;;;;;235.07;221.82;;;11.80;99.90;;;;;;5030349;28;20036;-74
2023/12/24 03:37:35;;;;;;;259.77;245.13;;;11.80;99.90;;;;;;5032370;28;20037;-74
2023/12/24 03:40:02;;;;;;;261.15;245.77;;;11.80;99.90;;;;;;5028079;28;20038;-75
2023/12/24 03:42:28;;;;;;;229.70;216.90;;;11.80;99.90;;;;;;5028054;28;20393;-74
2023/12/24 03:44:54;;;;;;;255.27;240.60;;;11.80;99.90;;;;;;5031237;28;20485;-74
2023/12/24 03:47:20;;;;;;;207.43;195.57;;;11.80;99.90;;;;;;5013454;28;20037;-74
2023/12/24 03:49:46;;;;;;;193.60;182.18;;;11.80;99.90;;;;;;5026443;28;20052;-74
2023/12/24 03:52:12;;;;;;;192.18;180.73;;;11.90;99.90;;;;;;5025705;28;20042;-75
2023/12/24 03:54:38;;;;;;;191.98;181.07;;;11.80;99.90;;;;;;5040258;28;20045;-74
2023/12/24 03:57:04;;;;;;;151.35;142.60;;;11.90;99.90;;;;;;5031278;28;20033;-75
2023/12/24 03:59:30;;;;;;;169.70;159.95;;;11.80;99.90;;;;;;5031244;28;20032;-74
2023/12/24 04:01:56;;;;;;;164.35;154.82;;;11.80;99.90;;;;;;5011949;28;20049;-74
2023/12/24 04:04:23;;;;;;;157.98;148.57;;;11.80;99.90;;;;;;5030623;28;20044;-74
2023/12/24 04:06:49;;;;;;;159.63;150.30;;;11.90;99.90;;;;;;5030683;28;20060;-75
2023/12/24 04:09:15;;;;;;;144.98;136.18;;;11.90;99.90;;;;;;5026263;28;20034;-74
2023/12/24 04:11:42;;;;;;;156.38;146.98;;;11.80;99.90;;;;;;5028233;28;20045;-74
2023/12/24 04:14:08;;;;;;;165.93;156.10;;;11.80;99.90;;;;;;5031918;28;20040;-74
2023/12/24 04:16:34;;;;;;;250.85;236.35;;;11.80;99.90;;;;;;5030460;28;20044;-74
2023/12/24 04:19:00;;;;;;;186.65;175.70;;;11.80;99.90;;;;;;5031385;28;20030;-74
2023/12/24 04:21:27;;;;;;;160.15;151.15;;;11.80;99.90;;;;;;5031152;28;20041;-74
2023/12/24 04:23:53;;;;;;;143.93;134.50;;;11.80;99.90;;;;;;5031824;28;20037;-74
2023/12/24 04:26:19;;;;;;;134.35;126.15;;;11.80;99.90;;;;;;5024140;28;20032;-75
2023/12/24 04:28:46;;;;;;;186.18;175.23;;;11.80;99.90;;;;;;5030657;28;20033;-75
2023/12/24 04:31:12;;;;;;;120.80;113.40;;;11.70;99.90;;;;;;5030088;28;20068;-74
2023/12/24 04:33:38;;;;;;;86.82;81.55;;;11.70;99.90;;;;;;5030086;28;20403;-74
2023/12/24 04:36:04;;;;;;;134.00;125.90;;;11.70;99.90;;;;;;5029265;28;20041;-75
2023/12/24 04:38:30;;;;;;;106.55;100.38;;;11.60;99.90;;;;;;5029549;28;20044;-74
2023/12/24 04:40:56;;;;;;;95.35;88.97;;;11.60;99.90;;;;;;5023871;28;20029;-70
2023/12/24 04:43:22;;;;;;;84.97;79.63;;;11.60;99.90;;;;;;5027615;28;20044;-70
2023/12/24 04:45:49;;;;;;;89.15;83.05;;;11.60;99.90;;;;;;5024947;28;20029;-70
2023/12/24 04:48:15;;;;;;;90.60;84.78;;;11.60;99.90;;;;;;5029772;28;20032;-70
2023/12/24 04:50:41;;;;;;;85.43;79.78;;;11.50;99.90;;;;;;5035949;28;20485;-70
2023/12/24 04:53:07;;;;;;;86.63;80.95;;;11.50;99.90;;;;;;5037010;28;20034;-70
2023/12/24 04:55:35;;;;;;;80.82;75.93;;;11.50;99.90;;;;;;5037680;28;20029;-70
2023/12/24 04:58:01;;;;;;;84.57;79.35;;;11.50;99.90;;;;;;5038143;28;20041;-70
2023/12/24 05:00:27;;;;;;;80.82;75.35;;;11.50;99.90;;;;;;5035217;28;20040;-72
2023/12/24 05:02:53;;;;;;;77.80;72.28;;;11.50;99.90;;;;;;5038019;28;20029;-72
2023/12/24 05:05:19;;;;;;;83.00;77.20;;;11.50;99.90;;;;;;5036394;28;20037;-70
2023/12/24 05:07:45;;;;;;;77.97;72.93;;;11.50;99.90;;;;;;5036166;28;20036;-70
2023/12/24 05:10:11;;;;;;;80.13;75.20;;;11.40;99.90;;;;;;5036083;28;20033;-70
2023/12/24 05:12:37;;;;;;;75.55;70.65;;;11.40;99.90;;;;;;5037561;28;20044;-70
2023/12/24 05:15:04;;;;;;;73.47;68.18;;;11.30;99.90;;;;;;5037024;28;20044;-70
2023/12/24 05:17:30;;;;;;;89.75;84.22;;;11.30;99.90;;;;;;5035627;28;20048;-70
2023/12/24 05:19:56;;;;;;;96.22;90.45;;;11.20;99.90;;;;;;5034522;28;20069;-70
2023/12/24 05:22:22;;;;;;;104.55;97.93;;;11.20;99.90;;;;;;5036553;28;20053;-70
2023/12/24 05:24:48;;;;;;;113.93;106.75;;;11.20;99.90;;;;;;5035168;28;20033;-71
2023/12/24 05:27:14;;;;;;;128.18;120.05;;;11.20;99.90;;;;;;5035771;28;20026;-71
2023/12/24 05:29:41;;;;;;;131.35;123.50;;;11.10;99.90;;;;;;5035139;28;20032;-71
2023/12/24 05:32:07;;;;;;;96.22;90.22;;;11.00;99.90;;;;;;5035131;28;20041;-71
2023/12/24 05:34:33;;;;;;;132.13;123.82;;;11.00;99.90;;;;;;5037280;28;20036;-71
2023/12/24 05:37:00;;;;;;;111.82;104.80;;;11.00;99.90;;;;;;5036450;28;20029;-71
2023/12/24 05:39:27;;;;;;;114.40;106.95;;;11.00;99.90;;;;;;5035573;28;20046;-71
2023/12/24 05:41:53;;;;;;;105.13;98.03;;;10.90;99.90;;;;;;5036431;28;20041;-75
2023/12/24 05:44:19;;;;;;;132.15;123.10;;;10.90;99.90;;;;;;5033626;28;20060;-76
2023/12/24 05:46:51;;;;;;;93.60;87.85;;;10.80;99.90;;;;;;5035594;28;20041;-76
2023/12/24 05:49:17;;;;;;;90.38;84.50;;;10.80;99.90;;;;;;5009092;28;20540;-75
2023/12/24 05:51:43;;;;;;;93.45;87.30;;;10.80;99.90;;;;;;5033876;28;20045;-75
2023/12/24 05:54:09;;;;;;;72.90;66.95;;;10.80;99.90;;;;;;5032389;28;20481;-75
2023/12/24 05:56:35;;;;;;;57.40;52.88;;;10.70;99.90;;;;;;5037185;28;20033;-76
2023/12/24 05:59:01;;;;;;;62.28;57.55;;;10.70;99.90;;;;;;5035806;28;20034;-75
2023/12/24 06:01:27;;;;;;;62.38;57.42;;;10.70;99.90;;;;;;5032818;28;20040;-75
2023/12/24 06:03:53;;;;;;;59.78;56.15;;;10.70;99.90;;;;;;5033074;28;20394;-75
2023/12/24 06:06:19;;;;;;;58.70;54.45;;;10.70;99.90;;;;;;5032713;28;20035;-76
2023/12/24 06:08:45;;;;;;;57.58;53.15;;;10.60;99.90;;;;;;5033664;28;20033;-75
2023/12/24 06:11:16;;;;;;;63.80;58.85;;;10.60;99.90;;;;;;5032773;28;20037;-76
2023/12/24 06:13:42;;;;;;;68.05;63.80;;;10.60;99.90;;;;;;5031862;28;20375;-75
2023/12/24 06:16:08;;;;;;;60.50;56.40;;;10.60;99.90;;;;;;5031433;28;20025;-75
2023/12/24 06:18:34;;;;;;;57.55;53.28;;;10.60;99.90;;;;;;5033465;28;20032;-75
2023/12/24 06:21:02;;;;;;;97.65;91.50;;;10.60;99.90;;;;;;5031173;28;20393;-74
2023/12/24 06:23:28;;;;;;;64.63;60.45;;;10.60;99.90;;;;;;5020707;28;20043;-74
2023/12/24 06:25:54;;;;;;;63.75;59.40;;;10.50;99.90;;;;;;5028882;28;20385;-74
2023/12/24 06:28:20;;;;;;;89.50;83.40;;;10.50;99.90;;;;;;5033496;28;20034;-74
2023/12/24 06:30:46;;;;;;;87.32;81.90;;;10.60;99.90;;;;;;5032948;28;20482;-74
2023/12/24 06:33:12;;;;;;;104.75;98.13;;;10.50;99.90;;;;;;5033123;28;20049;-74
2023/12/24 06:35:38;;;;;;;111.60;104.68;;;10.50;99.90;;;;;;5033211;28;20386;-74
2023/12/24 06:38:04;;;;;;;121.80;114.75;;;10.50;99.90;;;;;;5032118;28;20026;-74
2023/12/24 06:40:30;;;;;;;147.52;137.82;;;10.50;99.90;;;;;;5031612;28;20033;-74
2023/12/24 06:42:57;;;;;;;152.55;143.82;;;10.50;99.90;;;;;;5033139;28;20034;-74
2023/12/24 06:45:23;;;;;;;152.38;143.55;;;10.50;99.90;;;;;;5030236;28;20042;-71
2023/12/24 06:47:49;;;;;;;149.20;140.75;;;10.50;99.90;;;;;;5040889;28;20049;-71
2023/12/24 06:50:15;;;;;;;175.27;165.30;;;10.50;99.90;;;;;;5032729;28;20045;-71
2023/12/24 06:52:41;;;;;;;150.93;142.02;;;10.50;99.90;;;;;;5032724;28;20038;-72
2023/12/24 06:55:08;;;;;;;155.18;146.20;;;10.60;99.90;;;;;;5033188;28;20397;-71
2023/12/24 06:57:34;;;;;;;151.25;142.18;;;10.60;99.90;;;;;;5032945;28;20036;-71
2023/12/24 07:00:00;;;;;;;156.93;147.63;;;10.50;99.90;;;;;;5031651;28;20029;-71
2023/12/24 07:02:26;;;;;;;149.27;140.65;;;10.60;99.90;;;;;;5032180;28;20033;-71
2023/12/24 07:04:52;;;;;;;147.75;139.13;;;10.50;99.90;;;;;;5031346;28;20513;-71
2023/12/24 07:07:18;;;;;;;148.90;140.27;;;10.60;99.90;;;;;;5032928;28;20022;-71
2023/12/24 07:09:44;;;;;;;137.52;129.23;;;10.60;99.90;;;;;;5031609;28;20037;-71
2023/12/24 07:12:10;;;;;;;129.60;122.30;;;10.50;99.90;;;;;;5032063;28;20049;-71
2023/12/24 07:14:37;;;;;;;126.72;119.00;;;10.50;99.90;;;;;;5033337;28;20030;-71
2023/12/24 07:17:03;;;;;;;120.95;113.60;;;10.40;99.90;;;;;;5014143;28;20470;-71
2023/12/24 07:19:29;;;;;;;126.18;118.88;;;10.40;99.90;;;;;;5033135;28;20037;-71
2023/12/24 07:21:55;;;;;;;154.52;145.23;;;10.40;99.90;;;;;;5031316;28;20406;-71
2023/12/24 07:24:21;;;;;;;118.38;110.93;;;10.40;99.90;;;;;;5032191;28;20033;-71
2023/12/24 07:26:47;;;;;;;176.80;165.20;;;10.40;99.90;;;;;;5030917;28;20394;-71
2023/12/24 07:29:13;;;;;;;123.25;116.13;;;10.40;99.90;;;;;;5031779;28;20038;-71
2023/12/24 07:31:39;;;;;;;126.85;119.35;;;10.40;99.90;;;;;;5032154;28;20049;-71
2023/12/24 07:34:05;;;;;;;124.43;117.05;;;10.40;99.90;;;;;;5030736;28;20060;-71
2023/12/24 07:36:32;;;;;;;147.00;138.02;;;10.40;99.90;;;;;;5030654;28;20041;-71
2023/12/24 07:38:58;;;;;;;133.95;125.35;;;10.40;99.90;;;;;;5033054;28;20017;-71
2023/12/24 07:41:26;;;;;;;259.30;126.95;;;10.40;99.90;;;;;;5032421;28;20032;-71
2023/12/24 07:43:52;;;;;;;118.88;111.43;;;10.40;99.90;;;;;;5031362;28;20026;-71
2023/12/24 07:46:18;;;;;;;128.20;120.28;;;10.40;99.90;;;;;;5028150;28;20045;-71
2023/12/24 07:48:44;;;;;;;121.05;113.95;;;10.50;99.90;;;;;;5011149;28;20028;-71
2023/12/24 07:51:11;;;;;;;142.85;133.40;;;10.50;99.90;;;;;;5032378;28;20029;-71
2023/12/24 07:53:37;;;;;;;137.43;123.20;;;10.50;99.90;;;;;;5013046;28;20501;-74
2023/12/24 07:56:03;;;;;;;116.97;109.22;;;10.40;99.90;;;;;;5031686;28;20025;-75
2023/12/24 07:58:29;;;;;;;127.95;119.55;;;10.40;99.90;;;;;;5031096;28;20044;-74
2023/12/24 08:00:55;;;;;;;133.45;125.22;;;10.40;99.90;;;;;;5033274;28;20034;-74
2023/12/24 08:03:21;;;;;;;134.05;126.28;;;10.40;99.90;;;;;;5033767;28;20025;-74
2023/12/24 08:05:47;;;;;;;134.13;125.95;;;10.40;99.90;;;;;;5030520;28;20028;-74
2023/12/24 08:08:14;;;;;;;131.77;123.60;;;10.50;99.90;;;;;;5031530;28;20037;-78
2023/12/24 08:10:40;;;;;;;129.55;121.45;;;10.50;99.90;;;;;;5030631;28;20033;-72
2023/12/24 08:13:06;;;;;;;289.77;270.30;;;10.50;99.90;;;;;;5031101;28;20044;-74
2023/12/24 08:15:32;;;;;;;261.77;244.57;;;10.80;99.90;;;;;;5031172;28;20362;-74
2023/12/24 08:17:58;;;;;;;202.10;189.60;;;11.00;99.90;;;;;;5030077;28;20033;-74
2023/12/24 08:20:24;;;;;;;143.85;135.05;;;11.10;99.90;;;;;;5031070;28;20029;-73
2023/12/24 08:22:50;;;;;;;120.88;113.40;;;11.20;99.90;;;;;;5012712;28;20048;-73
2023/12/24 08:25:16;;;;;;;88.72;82.97;;;11.40;99.90;;;;;;5029352;28;20494;-73
2023/12/24 08:27:42;;;;;;;130.40;122.65;;;11.30;99.90;;;;;;5028997;28;20044;-70
2023/12/24 08:30:09;;;;;;;165.95;156.15;;;11.40;99.90;;;;;;5035600;28;20020;-75
2023/12/24 08:32:35;;;;;;;77.03;72.25;;;11.40;99.90;;;;;;4996028;28;20053;-71
2023/12/24 08:35:01;;;;;;;142.13;133.60;;;11.40;99.90;;;;;;5032130;28;20425;-73
2023/12/24 08:37:28;;;;;;;143.75;135.07;;;11.50;99.90;;;;;;5037421;28;20044;-73
2023/12/24 08:39:54;;;;;;;179.80;169.20;;;11.60;99.90;;;;;;5019581;28;20191;-72
2023/12/24 08:42:20;;;;;;;93.20;87.10;;;11.60;99.90;;;;;;5040385;28;20037;-73
2023/12/24 08:44:46;;;;;;;232.30;219.70;;;11.70;99.90;;;;;;5031268;28;20025;-74
2023/12/24 08:47:12;;;;;;;142.18;125.38;;;11.70;99.90;;;;;;5028949;28;20042;-74
2023/12/24 08:49:38;;;;;;;134.05;125.22;;;11.70;99.90;;;;;;5040287;28;20029;-74
2023/12/24 08:52:04;;;;;;;155.48;146.30;;;11.80;99.90;;;;;;5037636;28;20059;-71
2023/12/24 08:54:30;;;;;;;153.63;143.73;;;11.90;99.90;;;;;;5033964;28;20034;-71
2023/12/24 08:56:56;;;;;;;104.43;98.10;;;11.90;99.90;;;;;;5030568;28;20037;-73
2023/12/24 08:59:23;;;;;;;187.70;176.68;;;11.90;99.90;;;;;;5037801;28;20052;-75
2023/12/24 09:01:49;;;;;;;145.50;137.05;;;11.90;99.90;;;;;;5038505;28;20477;-74
2023/12/24 09:04:16;;;;;;;107.95;101.18;;;11.90;99.90;;;;;;5037103;28;20418;-74
2023/12/24 09:06:42;;;;;;;76.20;71.43;;;12.10;99.90;;;;;;5039230;28;20041;-74
2023/12/24 09:09:08;;;;;;;220.60;207.82;;;12.20;99.90;;;;;;5051837;28;20029;-75
2023/12/24 09:11:36;;;;;;;149.45;141.18;;;12.20;99.90;;;;;;5032071;28;20659;-75
2023/12/24 09:14:02;;;;;;;192.35;181.50;;;12.30;99.90;;;;;;5030539;28;20030;-74
2023/12/24 09:16:28;;;;;;;192.18;181.43;;;12.30;99.90;;;;;;5030206;28;20037;-74
2023/12/24 09:18:54;;;;;;;156.68;147.85;;;12.20;99.90;;;;;;5030133;28;20033;-74
2023/12/24 09:21:20;;;;;;;195.70;185.20;;;12.20;99.90;;;;;;5030172;28;20082;-74
2023/12/24 09:23:46;;;;;;;128.35;120.43;;;12.20;99.90;;;;;;5030357;28;20037;-76
2023/12/24 09:26:13;;;;;;;140.20;130.98;;;12.40;99.90;;;;;;5032021;28;20083;-75
2023/12/24 09:28:39;;;;;;;206.98;195.48;;;12.30;99.90;;;;;;5034224;28;20394;-75
2023/12/24 09:31:05;;;;;;;166.15;156.50;;;12.30;99.90;;;;;;5032963;28;20033;-74
2023/12/24 09:33:32;;;;;;;178.10;168.02;;;12.30;99.90;;;;;;5032152;28;20045;-68
2023/12/24 09:35:58;;;;;;;226.48;213.80;;;12.30;99.90;;;;;;5041747;28;20045;-71
2023/12/24 09:38:24;;;;;;;385.67;362.55;;;12.30;99.90;;;;;;5041527;28;20049;-70
2023/12/24 09:40:50;;;;;;;227.23;215.15;;;12.30;99.90;;;;;;5039122;28;20047;-68
2023/12/24 09:43:16;;;;;;;213.10;201.38;;;12.40;99.90;;;;;;5043838;28;20036;-68
2023/12/24 09:45:42;;;;;;;163.15;153.82;;;12.40;99.90;;;;;;5040907;28;20037;-68
2023/12/24 09:48:08;;;;;;;224.85;211.43;;;12.40;99.90;;;;;;5026045;28;20370;-68
2023/12/24 09:50:34;;;;;;;331.73;312.80;;;12.50;99.90;;;;;;5033046;28;20045;-69
2023/12/24 09:53:01;;;;;;;185.80;175.80;;;12.50;99.90;;;;;;5044933;28;20040;-68
2023/12/24 09:55:27;;;;;;;238.82;225.43;;;12.40;99.90;;;;;;5046520;28;20037;-68
2023/12/24 09:57:53;;;;;;;167.48;158.00;;;12.60;99.90;;;;;;5032774;28;20037;-69
2023/12/24 10:00:19;;;;;;;173.18;162.88;;;12.60;99.90;;;;;;5035193;28;20048;-67
2023/12/24 10:02:46;;;;;;;221.25;207.85;;;12.90;99.90;;;;;;5041577;28;20040;-68
2023/12/24 10:05:14;;;;;;;178.32;167.80;;;12.80;99.90;;;;;;5011400;28;20437;-69
2023/12/24 10:07:40;;;;;;;332.48;312.70;;;12.70;99.90;;;;;;5014531;28;20053;-66
2023/12/24 10:10:07;;;;;;;183.60;173.65;;;12.70;99.90;;;;;;5034546;28;20048;-68
2023/12/24 10:12:33;;;;;;;174.00;164.48;;;12.70;99.90;;;;;;5033871;28;20505;-69
2023/12/24 10:15:00;;;;;;;124.13;116.75;;;12.70;99.90;;;;;;5035629;28;20408;-69
2023/12/24 10:17:33;;;;;;;333.63;314.38;;;12.90;99.90;;;;;;5039873;28;20037;-69
2023/12/24 10:20:03;;;;;;;237.77;224.70;;;13.00;99.90;;;;;;5040226;28;20045;-70
2023/12/24 10:22:29;;;;;;;205.68;193.25;;;13.00;99.90;;;;;;5041250;28;20033;-70
2023/12/24 10:25:06;;;;;;;274.10;258.88;;;13.10;99.90;;;;;;5022559;28;20044;-70
2023/12/24 10:27:32;;;;;;;171.77;162.43;;;13.00;99.90;;;;;;5042272;28;20481;-70
2023/12/24 10:30:14;;;;;;;173.02;163.10;;;13.00;99.90;;;;;;5043417;28;20043;-69
2023/12/24 10:32:43;;;;;;;313.98;295.75;;;13.00;99.90;;;;;;5041277;28;20506;-69
2023/12/24 10:35:09;;;;;;;338.85;319.90;;;13.10;99.90;;;;;;5040622;28;20029;-76
2023/12/24 10:37:36;;;;;;;176.43;166.75;;;13.20;99.90;;;;;;5030360;28;20506;-75
2023/12/24 10:40:10;;;;;;;198.88;187.93;;;13.20;99.90;;;;;;5031866;28;20021;-76
2023/12/24 10:42:40;;;;;;;246.82;233.23;;;13.20;99.90;;;;;;5028942;28;20060;-76
2023/12/24 10:45:06;;;;;;;235.52;222.52;;;13.20;99.90;;;;;;5030087;28;20032;-75
2023/12/24 10:47:33;;;;;;;210.55;199.13;;;13.20;99.90;;;;;;5036612;28;20033;-74
2023/12/24 10:49:59;;;;;;;267.75;252.57;;;13.30;99.90;;;;;;5040676;28;20021;-76
2023/12/24 10:52:25;;;;;;;225.25;213.25;;;13.50;99.90;;;;;;5039189;28;20060;-76
2023/12/24 10:54:52;;;;;;;256.02;242.40;;;13.60;99.90;;;;;;5036269;28;20026;-76
2023/12/24 10:57:27;;;;;;;378.27;356.40;;;13.70;99.90;;;;;;5039366;28;20038;-76
2023/12/24 10:59:53;;;;;;;257.27;243.23;;;13.70;99.90;;;;;;5035209;28;20037;-75
2023/12/24 11:02:20;;;;;;;352.50;333.05;;;13.70;99.90;;;;;;5038955;28;20049;-76
2023/12/24 11:04:48;;;;;;;342.95;323.20;;;13.70;99.90;;;;;;5038701;28;20032;-76
2023/12/24 11:07:38;;;;;;;352.63;331.85;;;13.70;99.90;;;;;;5040100;28;20044;-76
2023/12/24 11:10:05;;;;;;;206.38;194.82;;;13.90;99.90;;;;;;5033624;28;20049;-76
2023/12/24 11:12:34;;;;;;;238.20;225.07;;;13.90;99.90;;;;;;5041732;28;20047;-76
2023/12/24 11:15:01;;;;;;;257.88;243.25;;;13.90;99.90;;;;;;5031599;28;20028;-76
2023/12/24 11:17:37;;;;;;;217.00;205.70;;;14.00;99.90;;;;;;5037188;28;20036;-75
2023/12/24 11:20:25;;;;;;;1999.90;999.90;;;13.90;99.90;;;;;;5033395;28;20466;-76
2023/12/24 11:23:06;;;;;;;301.95;285.38;;;13.90;99.90;;;;;;5042064;28;20033;-75
2023/12/24 11:25:38;;;;;;;;;;;14.10;99.90;;;;;;5040203;28;20068;-74
2023/12/24 11:28:04;;;;;;;172.80;163.15;;;14.10;99.90;;;;;;5041119;28;19916;-76
2023/12/24 11:30:50;;;;;;;1999.90;999.90;;;14.10;99.90;;;;;;5046689;28;20029;-75
2023/12/24 11:33:33;;;;;;;1999.90;999.90;;;14.10;99.90;;;;;;5021630;28;20041;-76
2023/12/24 11:36:00;;;;;;;1999.90;999.90;;;14.00;99.90;;;;;;5027652;28;20036;-76
2023/12/24 11:38:35;;;;;;;1999.90;999.90;;;14.00;99.90;;;;;;5031602;28;20042;-75
2023/12/24 11:41:07;;;;;;;1999.90;999.90;;;14.10;99.90;;;;;;5031683;28;20047;-75
2023/12/24 11:43:37;;;;;;;1999.90;999.90;;;14.10;99.90;;;;;;5031584;28;20021;-75
2023/12/24 11:46:07;;;;;;;1999.90;999.90;;;14.20;99.90;;;;;;5009811;28;20041;-75
2023/12/24 11:48:34;;;;;;;1999.90;999.90;;;14.30;99.90;;;;;;5030158;28;20462;-75
2023/12/24 11:51:07;;;;;;;1999.90;999.90;;;14.40;99.90;;;;;;5029941;28;20032;-76
2023/12/24 11:53:37;;;;;;;1999.90;999.90;;;14.40;99.90;;;;;;5037567;28;20041;-75
2023/12/24 11:56:17;;;;;;;1999.90;999.90;;;14.50;99.90;;;;;;5030113;28;20045;-76
2023/12/24 11:58:49;;;;;;;1999.90;999.90;;;14.60;99.90;;;;;;5031786;28;20482;-70
2023/12/24 12:01:24;;;;;;;1999.90;999.90;;;14.70;99.90;;;;;;5029040;28;20383;-69
2023/12/24 12:04:05;;;;;;;1999.90;999.90;;;14.70;99.90;;;;;;5014020;28;20406;-69
2023/12/24 12:06:32;;;;;;;1999.90;999.90;;;14.80;99.90;;;;;;5025159;28;20033;-68
2023/12/24 12:09:01;;;;;;;1999.90;999.90;;;14.80;99.90;;;;;;5044858;28;20025;-68